createdAt,value
2022-10-15T00:02:14.202Z,100.83
2022-10-15T00:04:49.071Z,99.30
2022-10-15T00:07:19.941Z,91.90
2022-10-15T00:09:50.814Z,92.63
2022-10-15T00:12:20.587Z,85.67
2022-10-15T00:14:53.488Z,96.23
2022-10-15T00:17:28.307Z,95.83
2022-10-15T00:19:58.292Z,91.60
2022-10-15T00:22:28.441Z,95.43
2022-10-15T00:24:57.637Z,96.03
2022-10-15T00:27:34.862Z,87.23
2022-10-15T00:30:04.802Z,104.03
2022-10-15T00:32:51.782Z,93.40
2022-10-15T00:35:24.848Z,95.67
2022-10-15T00:37:54.440Z,99.40
2022-10-15T00:40:32.659Z,98.67
2022-10-15T00:43:01.739Z,92.63
2022-10-15T00:45:32.417Z,94.93
2022-10-15T00:48:03.216Z,102.93
2022-10-15T00:50:33.974Z,102.83
2022-10-15T00:53:27.587Z,96.13
2022-10-15T00:55:58.134Z,100.37
2022-10-15T00:58:38.106Z,89.07
2022-10-15T01:01:16.550Z,94.17
2022-10-15T01:03:50.020Z,94.57
2022-10-15T01:06:19.417Z,98.77
2022-10-15T01:08:51.941Z,85.40
2022-10-15T01:11:54.355Z,102.43
2022-10-15T01:14:38.631Z,93.87
2022-10-15T01:17:23.215Z,94.30
2022-10-15T01:20:58.581Z,98.20
2022-10-15T01:24:27.487Z,92.50
2022-10-15T01:27:43.505Z,93.27
2022-10-15T01:30:38.615Z,96.87
2022-10-15T01:33:34.230Z,91.03
2022-10-15T01:36:16.057Z,95.37
2022-10-15T01:38:59.135Z,86.00
2022-10-15T01:41:38.239Z,92.47
2022-10-15T01:44:27.586Z,91.73
2022-10-15T01:47:03.833Z,94.00
2022-10-15T01:49:40.336Z,105.90
2022-10-15T01:52:16.152Z,87.90
2022-10-15T01:54:56.101Z,93.67
2022-10-15T01:57:32.217Z,92.40
2022-10-15T02:00:06.951Z,99.90
2022-10-15T02:02:52.246Z,93.57
2022-10-15T02:05:37.610Z,95.40
2022-10-15T02:08:20.473Z,98.13
2022-10-15T02:11:08.984Z,110.53
2022-10-15T02:13:53.143Z,98.97
2022-10-15T02:16:26.727Z,101.33
2022-10-15T02:19:08.451Z,99.93
2022-10-15T02:21:40.605Z,103.13
2022-10-15T02:24:15.613Z,108.40
2022-10-15T02:26:51.473Z,96.20
2022-10-15T02:29:24.356Z,107.37
2022-10-15T02:31:59.047Z,102.47
2022-10-15T02:34:32.619Z,107.93
2022-10-15T02:37:06.178Z,107.77
2022-10-15T02:39:36.172Z,103.50
2022-10-15T02:42:19.777Z,102.03
2022-10-15T02:44:49.235Z,102.93
2022-10-15T02:47:21.613Z,99.33
2022-10-15T02:49:57.292Z,93.73
2022-10-15T02:52:27.968Z,98.77
2022-10-15T02:55:05.112Z,101.93
2022-10-15T02:57:33.613Z,102.67
2022-10-15T03:00:03.050Z,102.83
2022-10-15T03:02:35.005Z,104.93
2022-10-15T03:05:05.116Z,105.10
2022-10-15T03:07:36.529Z,91.27
2022-10-15T03:10:31.494Z,89.80
2022-10-15T03:13:05.404Z,85.57
2022-10-15T03:15:34.714Z,84.37
2022-10-15T03:18:05.595Z,88.10
2022-10-15T03:20:36.837Z,83.47
2022-10-15T03:23:06.323Z,84.13
2022-10-15T03:25:41.986Z,88.67
2022-10-15T03:28:16.273Z,82.27
2022-10-15T03:30:47.454Z,74.33
2022-10-15T03:33:17.804Z,82.13
2022-10-15T03:35:54.317Z,77.90
2022-10-15T03:38:29.929Z,77.73
2022-10-15T03:41:05.511Z,75.03
2022-10-15T03:43:41.905Z,73.67
2022-10-15T03:46:14.407Z,76.47
2022-10-15T03:48:43.715Z,84.60
2022-10-15T03:51:24.619Z,75.17
2022-10-15T03:53:57.995Z,74.73
2022-10-15T03:56:38.345Z,76.60
2022-10-15T03:59:15.509Z,76.67
2022-10-15T04:01:45.661Z,80.87
2022-10-15T04:04:23.731Z,77.90
2022-10-15T04:06:56.571Z,71.60
2022-10-15T04:09:33.897Z,75.33
2022-10-15T04:12:05.857Z,72.97
2022-10-15T04:14:36.228Z,72.47
2022-10-15T04:17:11.578Z,71.97
2022-10-15T04:19:42.458Z,61.57
2022-10-15T04:22:12.430Z,77.87
2022-10-15T04:24:41.211Z,67.53
2022-10-15T04:27:12.331Z,78.03
2022-10-15T04:29:41.043Z,71.73
2022-10-15T04:35:09.042Z,73.73
2022-10-15T04:37:40.657Z,72.67
2022-10-15T04:42:54.655Z,77.17
2022-10-15T04:47:55.226Z,76.33
2022-10-15T04:50:25.367Z,78.27
2022-10-15T04:52:56.719Z,72.00
2022-10-15T04:58:07.275Z,83.07
2022-10-15T05:00:36.621Z,81.80
2022-10-15T05:03:20.728Z,81.50
2022-10-15T05:05:50.128Z,84.57
2022-10-15T05:11:09.663Z,75.87
2022-10-15T05:13:39.734Z,88.87
2022-10-15T05:16:17.143Z,85.03
2022-10-15T05:18:49.141Z,83.30
2022-10-15T05:21:24.060Z,88.83
2022-10-15T05:24:01.573Z,91.50
2022-10-15T05:26:34.033Z,78.53
2022-10-15T05:29:03.187Z,84.03
2022-10-15T05:31:48.356Z,89.90
2022-10-15T05:34:17.137Z,91.67
2022-10-15T05:36:45.852Z,93.23
2022-10-15T05:39:16.981Z,93.50
2022-10-15T05:42:00.296Z,93.30
2022-10-15T05:44:31.880Z,86.53
2022-10-15T05:47:09.228Z,89.57
2022-10-15T05:52:23.691Z,87.23
2022-10-15T05:54:56.446Z,81.33
2022-10-15T05:57:25.744Z,87.30
2022-10-15T06:00:00.478Z,85.20
2022-10-15T06:02:29.380Z,92.30
2022-10-15T06:04:59.647Z,82.60
2022-10-15T06:07:29.343Z,82.23
2022-10-15T06:10:15.769Z,92.13
2022-10-15T06:12:44.961Z,84.80
2022-10-15T06:15:22.238Z,80.47
2022-10-15T06:17:54.664Z,85.07
2022-10-15T06:20:23.180Z,89.50
2022-10-15T06:22:52.495Z,85.07
2022-10-15T06:25:22.634Z,82.33
2022-10-15T06:27:51.767Z,87.70
2022-10-15T06:30:21.477Z,86.67
2022-10-15T06:32:50.999Z,90.83
2022-10-15T06:35:23.039Z,90.67
2022-10-15T06:37:51.915Z,84.53
2022-10-15T06:40:35.701Z,94.83
2022-10-15T06:45:52.969Z,89.63
2022-10-15T06:50:51.050Z,90.30
2022-10-15T06:53:34.305Z,96.90
2022-10-15T06:56:09.022Z,87.07
2022-10-15T06:58:39.291Z,85.33
2022-10-15T07:01:10.188Z,93.07
2022-10-15T07:03:39.194Z,93.00
2022-10-15T07:06:10.314Z,93.43
2022-10-15T07:08:40.597Z,92.90
2022-10-15T07:11:13.494Z,96.33
2022-10-15T07:13:42.094Z,87.73
2022-10-15T07:16:14.770Z,87.83
2022-10-15T07:18:51.598Z,90.63
2022-10-15T07:21:20.238Z,85.53
2022-10-15T07:23:49.923Z,90.00
2022-10-15T07:26:19.773Z,80.03
2022-10-15T07:28:50.153Z,85.43
2022-10-15T07:31:18.449Z,77.87
2022-10-15T07:33:50.521Z,79.30
2022-10-15T07:36:23.009Z,83.70
2022-10-15T07:38:52.009Z,82.23
2022-10-15T07:41:26.840Z,77.33
2022-10-15T07:43:55.401Z,79.00
2022-10-15T07:46:23.768Z,78.27
2022-10-15T07:48:53.930Z,79.63
2022-10-15T07:51:25.570Z,81.13
2022-10-15T07:53:54.062Z,78.43
2022-10-15T07:56:31.855Z,70.73
2022-10-15T07:59:05.310Z,74.17
2022-10-15T08:01:34.174Z,72.17
2022-10-15T08:04:03.172Z,70.20
2022-10-15T08:06:42.222Z,69.77
2022-10-15T08:09:12.895Z,69.60
2022-10-15T08:11:44.467Z,72.83
2022-10-15T08:14:27.907Z,72.57
2022-10-15T08:17:04.666Z,66.10
2022-10-15T08:19:33.410Z,68.23
2022-10-15T08:22:09.515Z,62.17
2022-10-15T08:24:37.795Z,65.33
2022-10-15T08:27:15.034Z,59.97
2022-10-15T08:29:43.561Z,58.87
2022-10-15T08:32:21.456Z,66.37
2022-10-15T08:34:50.406Z,61.60
2022-10-15T08:37:23.651Z,58.53
2022-10-15T08:39:59.406Z,57.00
2022-10-15T08:42:38.992Z,62.87
2022-10-15T08:45:23.323Z,56.50
2022-10-15T08:48:00.379Z,56.40
2022-10-15T08:50:39.880Z,55.53
2022-10-15T08:53:13.445Z,52.53
2022-10-15T08:55:47.810Z,56.07
2022-10-15T08:58:30.375Z,51.90
2022-10-15T09:01:07.840Z,51.10
2022-10-15T09:06:41.948Z,48.63
2022-10-15T09:09:19.626Z,49.43
2022-10-15T09:12:00.846Z,45.00
2022-10-15T09:14:43.081Z,48.63
2022-10-15T09:17:41.742Z,42.87
2022-10-15T09:20:20.863Z,41.67
2022-10-15T09:23:09.966Z,40.93
2022-10-15T09:25:48.697Z,37.80
2022-10-15T09:28:21.307Z,40.27
2022-10-15T09:31:01.372Z,39.47
2022-10-15T09:33:42.466Z,37.17
2022-10-15T09:36:33.606Z,39.90
2022-10-15T09:39:29.554Z,42.23
2022-10-15T09:42:26.307Z,42.60
2022-10-15T09:48:22.337Z,42.53
2022-10-15T09:51:11.670Z,41.03
2022-10-15T09:54:12.812Z,43.43
2022-10-15T09:57:09.888Z,39.47
2022-10-15T10:03:13.587Z,37.80
2022-10-15T10:06:11.268Z,33.80
2022-10-15T10:09:02.489Z,36.70
2022-10-15T10:12:19.896Z,37.80
2022-10-15T10:15:18.597Z,34.77
2022-10-15T10:18:23.947Z,33.97
2022-10-15T10:24:41.347Z,37.83
2022-10-15T10:30:34.451Z,38.27
2022-10-15T10:33:18.096Z,41.93
2022-10-15T10:36:15.615Z,38.57
2022-10-15T10:39:05.919Z,42.07
2022-10-15T10:42:49.177Z,42.67
2022-10-15T10:45:41.721Z,36.47
2022-10-15T10:48:26.951Z,35.73
2022-10-15T10:51:45.820Z,32.97
2022-10-15T10:54:36.519Z,36.93
2022-10-15T10:57:30.592Z,33.60
2022-10-15T11:00:11.389Z,31.83
2022-10-15T11:02:44.504Z,34.17
2022-10-15T11:05:29.066Z,30.70
2022-10-15T11:11:24.446Z,30.70
2022-10-15T11:14:20.449Z,28.53
2022-10-15T11:17:03.368Z,27.97
2022-10-15T11:20:12.133Z,25.80
2022-10-15T11:23:04.195Z,26.37
2022-10-15T11:25:53.868Z,24.83
2022-10-15T11:29:05.976Z,20.87
2022-10-15T11:32:02.007Z,20.10
2022-10-15T11:35:01.829Z,19.37
2022-10-15T11:37:50.266Z,20.93
2022-10-15T11:40:35.334Z,20.43
2022-10-15T11:44:02.608Z,19.87
2022-10-15T11:46:50.392Z,16.33
2022-10-15T11:49:46.762Z,20.13
2022-10-15T11:52:52.998Z,22.60
2022-10-15T11:55:53.644Z,19.53
2022-10-15T12:02:05.304Z,20.93
2022-10-15T12:04:51.360Z,22.83
2022-10-15T12:07:29.881Z,19.43
2022-10-15T12:10:22.068Z,19.97
2022-10-15T12:13:17.765Z,21.97
2022-10-15T12:15:56.971Z,18.77
2022-10-15T12:18:52.421Z,20.73
2022-10-15T12:21:49.567Z,21.07
2022-10-15T12:27:44.863Z,19.73
2022-10-15T12:30:38.703Z,17.43
2022-10-15T12:33:54.868Z,20.03
2022-10-15T12:36:45.762Z,17.80
2022-10-15T12:39:47.573Z,19.80
2022-10-15T12:42:31.963Z,20.13
2022-10-15T12:45:04.658Z,17.63
2022-10-15T12:47:55.448Z,18.10
2022-10-15T12:50:35.987Z,18.60
2022-10-15T12:53:57.705Z,18.50
2022-10-15T12:56:43.131Z,18.80
2022-10-15T12:59:51.750Z,14.87
2022-10-15T13:02:50.733Z,16.57
2022-10-15T13:09:26.520Z,16.87
2022-10-15T13:12:11.089Z,17.97
2022-10-15T13:14:47.669Z,18.27
2022-10-15T13:17:27.055Z,16.70
2022-10-15T13:20:34.326Z,18.40
2022-10-15T13:23:31.039Z,17.00
2022-10-15T13:26:34.610Z,16.77
2022-10-15T13:29:09.840Z,20.53
2022-10-15T13:31:50.150Z,17.23
2022-10-15T13:34:32.262Z,18.47
2022-10-15T13:37:37.709Z,18.30
2022-10-15T13:40:21.093Z,18.73
2022-10-15T13:45:55.943Z,20.17
2022-10-15T13:51:23.565Z,20.00
2022-10-15T13:54:13.760Z,19.77
2022-10-15T13:59:59.047Z,22.23
2022-10-15T14:02:52.176Z,20.47
2022-10-15T14:05:30.879Z,22.73
2022-10-15T14:11:07.434Z,21.30
2022-10-15T14:13:47.080Z,20.27
2022-10-15T14:20:14.372Z,19.30
2022-10-15T14:22:59.641Z,21.03
2022-10-15T14:25:55.085Z,20.77
2022-10-15T14:32:10.091Z,20.03
2022-10-15T14:34:45.415Z,20.43
2022-10-15T14:37:48.326Z,19.40
2022-10-15T14:40:38.543Z,20.93
2022-10-15T14:46:36.199Z,19.73
2022-10-15T14:49:41.837Z,21.40
2022-10-15T14:55:25.980Z,17.77
2022-10-15T15:00:49.250Z,16.60
2022-10-15T15:03:39.731Z,15.17
2022-10-15T15:06:27.409Z,15.83
2022-10-15T15:09:08.632Z,13.57
2022-10-15T15:11:42.193Z,13.53
2022-10-15T15:14:33.090Z,11.93
2022-10-15T15:17:07.136Z,11.67
2022-10-15T15:20:08.796Z,11.53
2022-10-15T15:22:57.981Z,10.33
2022-10-15T15:25:38.942Z,10.80
2022-10-15T15:28:30.761Z,10.20
2022-10-15T15:34:02.520Z,11.30
2022-10-15T15:36:49.746Z,9.90
2022-10-15T15:39:47.371Z,9.60
2022-10-15T15:45:45.413Z,10.33
2022-10-15T15:48:22.676Z,8.93
2022-10-15T15:51:33.334Z,9.30
2022-10-15T15:54:47.281Z,10.27
2022-10-15T15:57:26.625Z,7.80
2022-10-15T16:03:24.341Z,8.43
2022-10-15T16:06:04.996Z,8.93
2022-10-15T16:08:46.732Z,8.40
2022-10-15T16:14:12.513Z,9.90
2022-10-15T16:17:01.970Z,9.00
2022-10-15T16:19:35.677Z,8.87
2022-10-15T16:22:11.667Z,8.47
2022-10-15T16:24:48.529Z,7.77
2022-10-15T16:27:47.179Z,8.70
2022-10-15T16:30:21.952Z,7.90
2022-10-15T16:35:49.484Z,9.77
2022-10-15T16:38:25.903Z,8.57
2022-10-15T16:41:10.136Z,10.07
2022-10-15T16:43:54.008Z,8.83
2022-10-15T16:46:25.831Z,7.93
2022-10-15T16:49:01.909Z,11.93
2022-10-15T16:51:34.986Z,8.50
2022-10-15T16:54:09.386Z,7.20
2022-10-15T16:59:56.316Z,8.97
2022-10-15T17:02:37.001Z,8.90
2022-10-15T17:05:22.314Z,9.03
2022-10-15T17:08:14.514Z,8.43
2022-10-15T17:10:50.415Z,8.87
2022-10-15T17:13:26.317Z,8.63
2022-10-15T17:19:26.451Z,10.50
2022-10-15T17:22:06.748Z,10.43
2022-10-15T17:24:49.219Z,9.13
2022-10-15T17:27:40.820Z,10.83
2022-10-15T17:30:35.969Z,9.27
2022-10-15T17:33:58.202Z,10.87
2022-10-15T17:36:44.485Z,8.10
2022-10-15T17:39:17.488Z,9.47
2022-10-15T17:41:56.943Z,7.90
2022-10-15T17:44:27.130Z,8.80
2022-10-15T17:47:09.905Z,10.07
2022-10-15T17:49:45.397Z,10.33
2022-10-15T17:52:24.943Z,8.93
2022-10-15T17:55:07.448Z,10.37
2022-10-15T17:58:10.181Z,10.90
2022-10-15T18:00:38.581Z,7.20
2022-10-15T18:03:31.575Z,7.87
2022-10-15T18:06:21.267Z,8.43
2022-10-15T18:09:08.767Z,7.30
2022-10-15T18:11:45.218Z,7.53
2022-10-15T18:14:23.383Z,8.03
2022-10-15T18:16:57.722Z,6.43
2022-10-15T18:19:30.004Z,7.97
2022-10-15T18:22:18.085Z,9.63
2022-10-15T18:25:00.871Z,6.40
2022-10-15T18:27:33.389Z,9.23
2022-10-15T18:30:17.489Z,8.93
2022-10-15T18:33:13.491Z,6.67
2022-10-15T18:35:44.474Z,5.70
2022-10-15T18:38:19.647Z,4.93
2022-10-15T18:40:50.549Z,9.17
2022-10-15T18:43:41.694Z,8.97
2022-10-15T18:49:07.379Z,7.83
2022-10-15T18:51:43.821Z,9.03
2022-10-15T18:54:28.239Z,5.43
2022-10-15T18:57:07.961Z,8.10
2022-10-15T18:59:58.247Z,4.97
2022-10-15T19:02:41.095Z,9.03
2022-10-15T19:05:11.839Z,7.27
2022-10-15T19:07:48.593Z,9.33
2022-10-15T19:10:51.331Z,7.93
2022-10-15T19:13:23.274Z,6.83
2022-10-15T19:15:56.630Z,8.10
2022-10-15T19:18:39.248Z,8.87
2022-10-15T19:21:17.828Z,6.60
2022-10-15T19:23:59.249Z,8.00
2022-10-15T19:27:12.797Z,8.93
2022-10-15T19:30:18.121Z,6.00
2022-10-15T19:32:50.587Z,6.77
2022-10-15T19:35:37.316Z,6.40
2022-10-15T19:38:27.554Z,5.60
2022-10-15T19:43:58.072Z,6.77
2022-10-15T19:46:54.287Z,6.03
2022-10-15T19:49:38.124Z,6.87
2022-10-15T19:52:20.593Z,8.13
2022-10-15T19:55:18.711Z,7.27
2022-10-15T19:57:52.711Z,8.83
2022-10-15T20:00:22.956Z,9.23
2022-10-15T20:03:11.282Z,9.37
2022-10-15T20:05:57.789Z,13.83
2022-10-15T20:08:29.125Z,10.33
2022-10-15T20:11:21.435Z,7.97
2022-10-15T20:14:08.273Z,9.60
2022-10-15T20:16:56.257Z,9.30
2022-10-15T20:19:36.828Z,7.97
2022-10-15T20:22:26.434Z,6.77
2022-10-15T20:31:01.898Z,10.60
2022-10-15T20:33:41.916Z,9.63
2022-10-15T20:36:41.498Z,7.77
2022-10-15T20:39:21.080Z,12.90
2022-10-15T20:42:14.931Z,7.40
2022-10-15T20:44:51.380Z,9.97
2022-10-15T20:47:27.319Z,7.90
2022-10-15T20:50:00.182Z,8.03
2022-10-15T20:52:48.042Z,9.23
2022-10-15T20:55:21.432Z,7.70
2022-10-15T20:58:12.084Z,9.87
2022-10-15T21:01:03.930Z,9.30
2022-10-15T21:03:43.681Z,8.80
2022-10-15T21:06:25.102Z,6.93
2022-10-15T21:09:47.083Z,10.50
2022-10-15T21:12:31.506Z,8.70
2022-10-15T21:15:13.593Z,8.20
2022-10-15T21:17:59.381Z,8.70
2022-10-15T21:20:41.868Z,8.47
2022-10-15T21:23:28.814Z,7.87
2022-10-15T21:26:10.807Z,9.47
2022-10-15T21:29:03.172Z,7.53
2022-10-15T21:31:49.747Z,7.93
2022-10-15T21:34:21.915Z,11.53
2022-10-15T21:39:51.865Z,7.33
2022-10-15T21:45:56.073Z,10.33
2022-10-15T21:48:36.241Z,8.70
2022-10-15T21:51:16.391Z,8.00
2022-10-15T21:54:03.740Z,6.90
2022-10-15T21:56:35.992Z,6.33
2022-10-15T21:59:09.729Z,7.63
2022-10-15T22:07:21.042Z,5.53
2022-10-15T22:10:23.219Z,8.13
2022-10-15T22:13:17.110Z,6.67
2022-10-15T22:16:03.475Z,8.23
2022-10-15T22:18:41.975Z,4.70
2022-10-15T22:21:33.142Z,8.87
2022-10-15T22:24:16.231Z,6.40
2022-10-15T22:26:47.821Z,5.33
2022-10-15T22:29:34.505Z,8.27
2022-10-15T22:32:26.984Z,4.97
2022-10-15T22:34:58.765Z,8.00
2022-10-15T22:37:39.761Z,5.63
2022-10-15T22:40:16.663Z,4.67
2022-10-15T22:42:52.668Z,7.70
2022-10-15T22:45:24.610Z,5.40
2022-10-15T22:48:16.858Z,4.70
2022-10-15T22:50:58.351Z,6.70
2022-10-15T22:53:54.806Z,9.33
2022-10-15T22:56:27.070Z,5.53
2022-10-15T22:59:04.539Z,4.20
2022-10-15T23:01:39.295Z,6.30
2022-10-15T23:04:16.840Z,7.47
2022-10-15T23:12:52.271Z,6.97
2022-10-15T23:15:36.243Z,5.53
2022-10-15T23:18:24.581Z,4.63
2022-10-15T23:21:06.976Z,4.93
2022-10-15T23:26:34.870Z,6.70
2022-10-15T23:29:10.728Z,7.70
2022-10-15T23:37:39.682Z,5.70
2022-10-15T23:40:50.005Z,6.60
2022-10-15T23:43:28.705Z,5.00
2022-10-15T23:46:01.270Z,6.10
2022-10-15T23:48:40.509Z,8.03
2022-10-15T23:51:28.002Z,7.63
2022-10-15T23:57:02.997Z,6.60
2022-10-15T23:59:35.499Z,4.70
